createdAt,value
2023-01-31T10:33:16.714Z,72.70
2023-01-31T10:38:19.503Z,74.40
2023-01-31T10:43:17.934Z,72.90
2023-01-31T10:48:20.098Z,73.90
2023-01-31T10:53:39.465Z,70.30
2023-01-31T10:58:33.551Z,69.70
2023-01-31T11:03:29.091Z,68.00
2023-01-31T11:08:36.822Z,68.90
2023-01-31T11:13:30.656Z,68.20
2023-01-31T11:18:48.408Z,66.70
2023-01-31T11:23:46.577Z,65.60
2023-01-31T11:28:42.523Z,66.10
2023-01-31T11:33:57.001Z,63.30
2023-01-31T11:38:51.347Z,61.90
2023-01-31T11:43:45.439Z,61.80
2023-01-31T11:48:43.468Z,60.30
2023-01-31T11:53:45.529Z,59.00
2023-01-31T11:58:46.209Z,57.80
2023-01-31T12:03:55.288Z,55.50
2023-01-31T12:08:59.085Z,54.80
2023-01-31T12:13:55.453Z,55.40
2023-01-31T12:18:59.641Z,56.00
2023-01-31T12:24:06.318Z,54.60
2023-01-31T12:29:26.285Z,54.20
2023-01-31T12:34:33.024Z,54.50
2023-01-31T12:39:49.266Z,52.70
2023-01-31T12:44:49.161Z,53.20
2023-01-31T12:49:55.179Z,52.00
2023-01-31T12:55:04.961Z,50.20
2023-01-31T13:00:11.399Z,50.70
2023-01-31T13:05:14.474Z,49.30
2023-01-31T13:10:30.344Z,47.40
2023-01-31T13:15:32.602Z,47.40
2023-01-31T13:20:35.841Z,47.60
2023-01-31T13:25:47.941Z,48.20
2023-01-31T13:30:49.061Z,46.00
2023-01-31T13:35:45.643Z,43.10
2023-01-31T13:40:51.243Z,43.20
2023-01-31T13:45:54.906Z,39.40
2023-01-31T13:50:54.084Z,37.70
2023-01-31T13:55:50.838Z,37.70
2023-01-31T14:00:54.484Z,36.70
2023-01-31T14:06:10.173Z,36.90
2023-01-31T14:11:43.715Z,39.40
2023-01-31T14:16:44.220Z,37.80
2023-01-31T14:21:58.163Z,36.00
2023-01-31T14:26:57.153Z,34.00
2023-01-31T14:31:52.815Z,34.70
2023-01-31T14:37:03.499Z,36.30
2023-01-31T14:42:20.952Z,38.40
2023-01-31T14:47:28.325Z,42.10
2023-01-31T14:52:37.588Z,43.60
2023-01-31T14:57:35.738Z,44.30
2023-01-31T15:02:49.798Z,44.80
2023-01-31T15:08:06.030Z,46.80
2023-01-31T15:13:02.569Z,47.50
2023-01-31T15:18:04.416Z,47.40
2023-01-31T15:23:05.024Z,48.50
2023-01-31T15:28:01.481Z,46.70
2023-01-31T15:33:00.040Z,46.90
2023-01-31T15:38:01.873Z,46.90
2023-01-31T15:42:56.284Z,49.00
2023-01-31T15:48:05.740Z,48.40
2023-01-31T15:53:09.086Z,51.00
2023-01-31T15:58:08.653Z,50.90
2023-01-31T16:03:06.688Z,51.60
2023-01-31T16:08:11.566Z,52.50
2023-01-31T16:23:46.294Z,58.80
2023-01-31T16:28:45.700Z,62.00
2023-01-31T16:33:47.468Z,62.10
2023-01-31T16:38:44.137Z,63.40
2023-01-31T16:43:39.551Z,64.10
2023-01-31T16:54:56.258Z,67.60
2023-01-31T17:05:58.959Z,72.00
